MET'MAP v2.0
soon released !

Expected late october,
this new version will be
more efficient, smarter,
and hosted on a brand new
server x3 powerfull...
...and still free !


Not compatible ?
Try the mobile version !

LOG IN : | Subscribe | Disclaimer | Who is Orbifly ? |
ICAO code :

TAF - EYPA Palanga - 27 May 2020 19:03 UTC - Data Source NOAA   


- Airport Elevation : 33 ft
- IATA code : PLQ
- No reported NOTAMs.


EYPA - Palanga

Latest METAR recorded : 2015/08/11 07:50 EYPA 110750Z 12007KT 090V150 CAVOK 25/16 Q1019
TAF TAF EYPA
Valid from the 27 at 12:00 until the 28 at 12:00 UTC


271101Z 2712/2812 VRB05KT 6000 SCT004 SCT040
PROB40
TEMPO 2712/2718 0800 FG VV002
BECMG 2718/2720 3000 BR BKN003
TEMPO 2802/2805 SHRA BKN005 BKN015CB
BECMG 2808/2810 CAVOK

Source NOAA


MET'MAP, your aeronautical weather chart ! - Copyright ORBIFLY December 2007

Programming & Development : Alexandra Zaïnal
Co-Developer : Marc-Olivier Méhu
Technical & hardware support : Manuel Goepfert
Concept & Financing : Baudouin d'Aumeries